sensor_id;sensor_type;location;lat;lon;timestamp;P1;durP1;ratioP1;P2;durP2;ratioP2
56670;SDS011;42545;50.054;8.306;2023-08-12T00:00:16;0.30;;;0.30;;
56670;SDS011;42545;50.054;8.306;2023-08-12T00:02:43;0.40;;;0.40;;
56670;SDS011;42545;50.054;8.306;2023-08-12T00:05:10;0.40;;;0.40;;
56670;SDS011;42545;50.054;8.306;2023-08-12T00:07:38;0.43;;;0.43;;
56670;SDS011;42545;50.054;8.306;2023-08-12T00:10:06;0.40;;;0.40;;
56670;SDS011;42545;50.054;8.306;2023-08-12T00:12:35;0.40;;;0.40;;
56670;SDS011;42545;50.054;8.306;2023-08-12T00:15:02;0.40;;;0.40;;
56670;SDS011;42545;50.054;8.306;2023-08-12T00:17:32;0.50;;;0.50;;
56670;SDS011;42545;50.054;8.306;2023-08-12T00:19:59;0.50;;;0.50;;
56670;SDS011;42545;50.054;8.306;2023-08-12T00:22:25;0.40;;;0.40;;
56670;SDS011;42545;50.054;8.306;2023-08-12T00:24:52;0.47;;;0.47;;
56670;SDS011;42545;50.054;8.306;2023-08-12T00:27:19;0.30;;;0.30;;
56670;SDS011;42545;50.054;8.306;2023-08-12T00:29:46;0.30;;;0.30;;
56670;SDS011;42545;50.054;8.306;2023-08-12T00:32:13;0.30;;;0.30;;
56670;SDS011;42545;50.054;8.306;2023-08-12T00:34:40;0.30;;;0.30;;
56670;SDS011;42545;50.054;8.306;2023-08-12T00:37:06;0.50;;;0.50;;
56670;SDS011;42545;50.054;8.306;2023-08-12T00:39:33;0.30;;;0.30;;
56670;SDS011;42545;50.054;8.306;2023-08-12T00:41:59;0.40;;;0.40;;
56670;SDS011;42545;50.054;8.306;2023-08-12T00:44:26;0.40;;;0.40;;
56670;SDS011;42545;50.054;8.306;2023-08-12T00:46:55;0.30;;;0.30;;
56670;SDS011;42545;50.054;8.306;2023-08-12T00:49:22;0.38;;;0.38;;
56670;SDS011;42545;50.054;8.306;2023-08-12T00:51:49;0.40;;;0.40;;
56670;SDS011;42545;50.054;8.306;2023-08-12T00:54:18;0.30;;;0.30;;
56670;SDS011;42545;50.054;8.306;2023-08-12T00:56:48;0.70;;;0.70;;
56670;SDS011;42545;50.054;8.306;2023-08-12T00:59:15;0.60;;;0.60;;
56670;SDS011;42545;50.054;8.306;2023-08-12T01:01:43;0.60;;;0.60;;
56670;SDS011;42545;50.054;8.306;2023-08-12T01:04:12;0.60;;;0.60;;
56670;SDS011;42545;50.054;8.306;2023-08-12T01:06:38;0.60;;;0.60;;
56670;SDS011;42545;50.054;8.306;2023-08-12T01:09:05;0.60;;;0.60;;
56670;SDS011;42545;50.054;8.306;2023-08-12T01:11:34;0.50;;;0.50;;
56670;SDS011;42545;50.054;8.306;2023-08-12T01:14:06;0.50;;;0.50;;
56670;SDS011;42545;50.054;8.306;2023-08-12T01:16:39;0.93;;;0.93;;
56670;SDS011;42545;50.054;8.306;2023-08-12T01:19:15;0.88;;;0.88;;
56670;SDS011;42545;50.054;8.306;2023-08-12T01:21:49;0.90;;;0.90;;
56670;SDS011;42545;50.054;8.306;2023-08-12T01:24:21;1.45;;;1.35;;
56670;SDS011;42545;50.054;8.306;2023-08-12T01:26:48;1.60;;;1.40;;
56670;SDS011;42545;50.054;8.306;2023-08-12T01:29:15;1.50;;;1.40;;
56670;SDS011;42545;50.054;8.306;2023-08-12T01:31:43;1.10;;;1.00;;
56670;SDS011;42545;50.054;8.306;2023-08-12T01:34:16;1.58;;;1.25;;
56670;SDS011;42545;50.054;8.306;2023-08-12T01:36:49;1.20;;;1.10;;
56670;SDS011;42545;50.054;8.306;2023-08-12T01:39:23;1.33;;;1.23;;
56670;SDS011;42545;50.054;8.306;2023-08-12T01:41:52;1.13;;;1.02;;
56670;SDS011;42545;50.054;8.306;2023-08-12T01:44:21;1.20;;;1.10;;
56670;SDS011;42545;50.054;8.306;2023-08-12T01:46:48;1.10;;;1.00;;
56670;SDS011;42545;50.054;8.306;2023-08-12T01:49:15;1.02;;;0.93;;
56670;SDS011;42545;50.054;8.306;2023-08-12T01:51:42;1.10;;;1.00;;
56670;SDS011;42545;50.054;8.306;2023-08-12T01:54:08;0.70;;;0.70;;
56670;SDS011;42545;50.054;8.306;2023-08-12T01:56:36;1.42;;;1.27;;
56670;SDS011;42545;50.054;8.306;2023-08-12T01:59:03;1.40;;;1.30;;
56670;SDS011;42545;50.054;8.306;2023-08-12T02:01:30;1.67;;;1.50;;
56670;SDS011;42545;50.054;8.306;2023-08-12T02:03:56;2.17;;;1.98;;
56670;SDS011;42545;50.054;8.306;2023-08-12T02:06:23;2.28;;;2.08;;
56670;SDS011;42545;50.054;8.306;2023-08-12T02:08:49;2.30;;;2.10;;
56670;SDS011;42545;50.054;8.306;2023-08-12T02:11:16;2.88;;;2.50;;
56670;SDS011;42545;50.054;8.306;2023-08-12T02:13:44;2.40;;;1.90;;
56670;SDS011;42545;50.054;8.306;2023-08-12T02:16:10;2.90;;;2.60;;
56670;SDS011;42545;50.054;8.306;2023-08-12T02:18:37;3.10;;;2.70;;
56670;SDS011;42545;50.054;8.306;2023-08-12T02:21:04;3.10;;;2.72;;
56670;SDS011;42545;50.054;8.306;2023-08-12T02:23:30;3.05;;;2.50;;
56670;SDS011;42545;50.054;8.306;2023-08-12T02:25:56;3.30;;;2.60;;
56670;SDS011;42545;50.054;8.306;2023-08-12T02:28:23;2.97;;;2.50;;
56670;SDS011;42545;50.054;8.306;2023-08-12T02:30:51;3.97;;;2.70;;
56670;SDS011;42545;50.054;8.306;2023-08-12T02:33:17;5.72;;;4.00;;
56670;SDS011;42545;50.054;8.306;2023-08-12T02:35:44;4.15;;;3.45;;
56670;SDS011;42545;50.054;8.306;2023-08-12T02:38:10;4.78;;;4.28;;
56670;SDS011;42545;50.054;8.306;2023-08-12T02:40:37;4.00;;;3.60;;
56670;SDS011;42545;50.054;8.306;2023-08-12T02:43:03;5.80;;;3.90;;
56670;SDS011;42545;50.054;8.306;2023-08-12T02:45:30;3.92;;;3.53;;
56670;SDS011;42545;50.054;8.306;2023-08-12T02:47:58;3.67;;;3.35;;
56670;SDS011;42545;50.054;8.306;2023-08-12T02:50:24;4.28;;;3.80;;
56670;SDS011;42545;50.054;8.306;2023-08-12T02:52:51;5.97;;;4.70;;
56670;SDS011;42545;50.054;8.306;2023-08-12T02:55:18;4.28;;;3.88;;
56670;SDS011;42545;50.054;8.306;2023-08-12T02:57:44;3.83;;;3.40;;
56670;SDS011;42545;50.054;8.306;2023-08-12T03:00:11;4.40;;;3.78;;
56670;SDS011;42545;50.054;8.306;2023-08-12T03:02:41;4.53;;;3.83;;
56670;SDS011;42545;50.054;8.306;2023-08-12T03:05:09;4.13;;;3.70;;
56670;SDS011;42545;50.054;8.306;2023-08-12T03:07:36;3.60;;;3.25;;
56670;SDS011;42545;50.054;8.306;2023-08-12T03:10:03;4.03;;;3.50;;
56670;SDS011;42545;50.054;8.306;2023-08-12T03:12:30;4.30;;;3.85;;
56670;SDS011;42545;50.054;8.306;2023-08-12T03:14:57;4.15;;;3.60;;
56670;SDS011;42545;50.054;8.306;2023-08-12T03:17:23;4.00;;;3.60;;
56670;SDS011;42545;50.054;8.306;2023-08-12T03:19:50;3.97;;;3.58;;
56670;SDS011;42545;50.054;8.306;2023-08-12T03:22:18;4.43;;;3.88;;
56670;SDS011;42545;50.054;8.306;2023-08-12T03:24:44;4.30;;;3.90;;
56670;SDS011;42545;50.054;8.306;2023-08-12T03:27:11;3.78;;;3.33;;
56670;SDS011;42545;50.054;8.306;2023-08-12T03:29:38;3.38;;;3.08;;
56670;SDS011;42545;50.054;8.306;2023-08-12T03:32:04;3.55;;;3.25;;
56670;SDS011;42545;50.054;8.306;2023-08-12T03:34:31;3.15;;;2.85;;
56670;SDS011;42545;50.054;8.306;2023-08-12T03:36:58;3.58;;;3.28;;
56670;SDS011;42545;50.054;8.306;2023-08-12T03:39:26;3.95;;;3.63;;
56670;SDS011;42545;50.054;8.306;2023-08-12T03:41:52;4.50;;;4.10;;
56670;SDS011;42545;50.054;8.306;2023-08-12T03:44:19;6.75;;;6.05;;
56670;SDS011;42545;50.054;8.306;2023-08-12T03:46:46;7.80;;;6.90;;
56670;SDS011;42545;50.054;8.306;2023-08-12T03:49:12;8.63;;;7.07;;
56670;SDS011;42545;50.054;8.306;2023-08-12T03:51:39;8.68;;;7.50;;
56670;SDS011;42545;50.054;8.306;2023-08-12T03:54:06;7.70;;;6.72;;
56670;SDS011;42545;50.054;8.306;2023-08-12T03:56:34;7.32;;;6.53;;
56670;SDS011;42545;50.054;8.306;2023-08-12T03:59:00;6.50;;;5.90;;
56670;SDS011;42545;50.054;8.306;2023-08-12T04:01:27;6.65;;;5.95;;
56670;SDS011;42545;50.054;8.306;2023-08-12T04:03:54;5.20;;;4.70;;
56670;SDS011;42545;50.054;8.306;2023-08-12T04:06:20;5.00;;;4.45;;
56670;SDS011;42545;50.054;8.306;2023-08-12T04:08:47;5.28;;;4.68;;
56670;SDS011;42545;50.054;8.306;2023-08-12T04:11:13;4.57;;;4.18;;
56670;SDS011;42545;50.054;8.306;2023-08-12T04:13:41;4.40;;;4.00;;
56670;SDS011;42545;50.054;8.306;2023-08-12T04:16:08;4.32;;;3.92;;
56670;SDS011;42545;50.054;8.306;2023-08-12T04:18:34;4.82;;;4.40;;
56670;SDS011;42545;50.054;8.306;2023-08-12T04:21:01;4.90;;;4.40;;
56670;SDS011;42545;50.054;8.306;2023-08-12T04:23:28;5.13;;;4.63;;
56670;SDS011;42545;50.054;8.306;2023-08-12T04:25:55;4.55;;;4.07;;
56670;SDS011;42545;50.054;8.306;2023-08-12T04:28:21;4.53;;;3.80;;
56670;SDS011;42545;50.054;8.306;2023-08-12T04:30:50;4.20;;;3.80;;
56670;SDS011;42545;50.054;8.306;2023-08-12T04:33:17;4.67;;;4.27;;
56670;SDS011;42545;50.054;8.306;2023-08-12T04:35:44;4.28;;;3.90;;
56670;SDS011;42545;50.054;8.306;2023-08-12T04:38:12;4.05;;;3.70;;
56670;SDS011;42545;50.054;8.306;2023-08-12T04:40:39;4.78;;;4.38;;
56670;SDS011;42545;50.054;8.306;2023-08-12T04:43:07;4.43;;;4.03;;
56670;SDS011;42545;50.054;8.306;2023-08-12T04:45:33;4.43;;;4.03;;
56670;SDS011;42545;50.054;8.306;2023-08-12T04:48:01;4.18;;;3.78;;
56670;SDS011;42545;50.054;8.306;2023-08-12T04:50:29;4.35;;;3.95;;
56670;SDS011;42545;50.054;8.306;2023-08-12T04:52:56;4.35;;;3.95;;
56670;SDS011;42545;50.054;8.306;2023-08-12T04:55:24;3.90;;;3.55;;
56670;SDS011;42545;50.054;8.306;2023-08-12T04:57:51;4.18;;;3.78;;
56670;SDS011;42545;50.054;8.306;2023-08-12T05:00:19;4.03;;;3.60;;
56670;SDS011;42545;50.054;8.306;2023-08-12T05:02:46;3.75;;;3.45;;
56670;SDS011;42545;50.054;8.306;2023-08-12T05:05:15;3.80;;;3.50;;
56670;SDS011;42545;50.054;8.306;2023-08-12T05:07:41;3.67;;;3.38;;
56670;SDS011;42545;50.054;8.306;2023-08-12T05:10:09;3.92;;;3.53;;
56670;SDS011;42545;50.054;8.306;2023-08-12T05:12:36;3.38;;;3.08;;
56670;SDS011;42545;50.054;8.306;2023-08-12T05:15:03;3.20;;;2.90;;
56670;SDS011;42545;50.054;8.306;2023-08-12T05:17:31;3.90;;;3.50;;
56670;SDS011;42545;50.054;8.306;2023-08-12T05:19:58;3.40;;;3.10;;
56670;SDS011;42545;50.054;8.306;2023-08-12T05:22:26;3.03;;;2.83;;
56670;SDS011;42545;50.054;8.306;2023-08-12T05:24:53;2.70;;;2.50;;
56670;SDS011;42545;50.054;8.306;2023-08-12T05:27:20;2.47;;;2.28;;
56670;SDS011;42545;50.054;8.306;2023-08-12T05:29:46;2.25;;;2.05;;
56670;SDS011;42545;50.054;8.306;2023-08-12T05:32:13;2.72;;;2.53;;
56670;SDS011;42545;50.054;8.306;2023-08-12T05:34:40;3.10;;;2.80;;
56670;SDS011;42545;50.054;8.306;2023-08-12T05:37:06;3.58;;;3.28;;
56670;SDS011;42545;50.054;8.306;2023-08-12T05:39:35;4.55;;;4.13;;
56670;SDS011;42545;50.054;8.306;2023-08-12T05:42:02;5.30;;;4.80;;
56670;SDS011;42545;50.054;8.306;2023-08-12T05:44:29;4.88;;;4.40;;
56670;SDS011;42545;50.054;8.306;2023-08-12T05:46:55;4.95;;;4.45;;
56670;SDS011;42545;50.054;8.306;2023-08-12T05:49:22;5.88;;;5.00;;
56670;SDS011;42545;50.054;8.306;2023-08-12T05:51:48;5.57;;;5.07;;
56670;SDS011;42545;50.054;8.306;2023-08-12T05:54:15;6.43;;;5.68;;
56670;SDS011;42545;50.054;8.306;2023-08-12T05:56:43;6.60;;;5.88;;
56670;SDS011;42545;50.054;8.306;2023-08-12T05:59:10;5.43;;;4.88;;
56670;SDS011;42545;50.054;8.306;2023-08-12T06:01:36;5.10;;;4.60;;
56670;SDS011;42545;50.054;8.306;2023-08-12T06:04:03;6.05;;;4.97;;
56670;SDS011;42545;50.054;8.306;2023-08-12T06:06:30;5.15;;;4.65;;
56670;SDS011;42545;50.054;8.306;2023-08-12T06:08:57;5.20;;;4.70;;
56670;SDS011;42545;50.054;8.306;2023-08-12T06:11:24;5.90;;;5.30;;
56670;SDS011;42545;50.054;8.306;2023-08-12T06:13:55;6.00;;;5.40;;
56670;SDS011;42545;50.054;8.306;2023-08-12T06:16:22;5.40;;;4.90;;
56670;SDS011;42545;50.054;8.306;2023-08-12T06:18:48;5.97;;;5.30;;
56670;SDS011;42545;50.054;8.306;2023-08-12T06:21:15;5.80;;;4.75;;
56670;SDS011;42545;50.054;8.306;2023-08-12T06:23:42;4.22;;;3.83;;
56670;SDS011;42545;50.054;8.306;2023-08-12T06:26:09;4.03;;;3.65;;
56670;SDS011;42545;50.054;8.306;2023-08-12T06:28:35;4.40;;;4.00;;
56670;SDS011;42545;50.054;8.306;2023-08-12T06:31:04;4.13;;;3.72;;
56670;SDS011;42545;50.054;8.306;2023-08-12T06:33:31;3.47;;;3.17;;
56670;SDS011;42545;50.054;8.306;2023-08-12T06:35:57;3.85;;;3.55;;
56670;SDS011;42545;50.054;8.306;2023-08-12T06:38:24;3.38;;;3.08;;
56670;SDS011;42545;50.054;8.306;2023-08-12T06:40:50;4.28;;;3.83;;
56670;SDS011;42545;50.054;8.306;2023-08-12T06:43:17;3.53;;;3.17;;
56670;SDS011;42545;50.054;8.306;2023-08-12T06:45:44;5.07;;;4.18;;
56670;SDS011;42545;50.054;8.306;2023-08-12T06:48:12;3.03;;;2.78;;
56670;SDS011;42545;50.054;8.306;2023-08-12T06:50:39;3.53;;;3.22;;
56670;SDS011;42545;50.054;8.306;2023-08-12T06:53:04;3.88;;;3.47;;
56670;SDS011;42545;50.054;8.306;2023-08-12T06:55:32;4.60;;;4.20;;
56670;SDS011;42545;50.054;8.306;2023-08-12T06:57:59;4.43;;;4.03;;
56670;SDS011;42545;50.054;8.306;2023-08-12T07:00:26;3.50;;;3.20;;
56670;SDS011;42545;50.054;8.306;2023-08-12T07:02:53;3.60;;;3.30;;
56670;SDS011;42545;50.054;8.306;2023-08-12T07:05:21;4.65;;;4.22;;
56670;SDS011;42545;50.054;8.306;2023-08-12T07:07:48;3.85;;;3.47;;
56670;SDS011;42545;50.054;8.306;2023-08-12T07:10:14;3.33;;;3.03;;
56670;SDS011;42545;50.054;8.306;2023-08-12T07:12:41;3.78;;;3.00;;
56670;SDS011;42545;50.054;8.306;2023-08-12T07:15:08;4.82;;;4.32;;
56670;SDS011;42545;50.054;8.306;2023-08-12T07:17:37;3.37;;;3.07;;
56670;SDS011;42545;50.054;8.306;2023-08-12T07:20:04;3.35;;;3.05;;
56670;SDS011;42545;50.054;8.306;2023-08-12T07:22:34;4.07;;;3.67;;
56670;SDS011;42545;50.054;8.306;2023-08-12T07:25:01;6.70;;;6.07;;
56670;SDS011;42545;50.054;8.306;2023-08-12T07:27:28;5.80;;;5.20;;
56670;SDS011;42545;50.054;8.306;2023-08-12T07:29:54;4.93;;;4.25;;
56670;SDS011;42545;50.054;8.306;2023-08-12T07:32:21;5.55;;;5.05;;
56670;SDS011;42545;50.054;8.306;2023-08-12T07:34:48;4.72;;;4.32;;
56670;SDS011;42545;50.054;8.306;2023-08-12T07:37:14;6.90;;;6.13;;
56670;SDS011;42545;50.054;8.306;2023-08-12T07:39:42;5.07;;;4.57;;
56670;SDS011;42545;50.054;8.306;2023-08-12T07:42:09;4.72;;;4.32;;
56670;SDS011;42545;50.054;8.306;2023-08-12T07:44:36;4.47;;;4.07;;
56670;SDS011;42545;50.054;8.306;2023-08-12T07:47:02;3.97;;;3.58;;
56670;SDS011;42545;50.054;8.306;2023-08-12T07:49:29;3.65;;;3.35;;
56670;SDS011;42545;50.054;8.306;2023-08-12T07:51:56;3.47;;;3.17;;
56670;SDS011;42545;50.054;8.306;2023-08-12T07:54:22;3.10;;;2.88;;
56670;SDS011;42545;50.054;8.306;2023-08-12T07:56:51;4.25;;;3.90;;
56670;SDS011;42545;50.054;8.306;2023-08-12T07:59:18;3.23;;;2.83;;
56670;SDS011;42545;50.054;8.306;2023-08-12T08:01:45;2.85;;;2.55;;
56670;SDS011;42545;50.054;8.306;2023-08-12T08:04:11;2.60;;;2.40;;
56670;SDS011;42545;50.054;8.306;2023-08-12T08:06:38;3.30;;;3.00;;
56670;SDS011;42545;50.054;8.306;2023-08-12T08:09:05;3.20;;;2.90;;
56670;SDS011;42545;50.054;8.306;2023-08-12T08:11:31;6.85;;;6.15;;
56670;SDS011;42545;50.054;8.306;2023-08-12T08:14:00;5.13;;;4.63;;
56670;SDS011;42545;50.054;8.306;2023-08-12T08:16:27;7.90;;;7.10;;
56670;SDS011;42545;50.054;8.306;2023-08-12T08:18:54;5.38;;;4.88;;
56670;SDS011;42545;50.054;8.306;2023-08-12T08:21:20;5.20;;;4.70;;
56670;SDS011;42545;50.054;8.306;2023-08-12T08:23:47;5.63;;;5.05;;
56670;SDS011;42545;50.054;8.306;2023-08-12T08:26:13;6.60;;;5.90;;
56670;SDS011;42545;50.054;8.306;2023-08-12T08:28:41;9.95;;;8.63;;
56670;SDS011;42545;50.054;8.306;2023-08-12T08:31:09;6.57;;;5.78;;
56670;SDS011;42545;50.054;8.306;2023-08-12T08:33:36;6.40;;;5.80;;
56670;SDS011;42545;50.054;8.306;2023-08-12T08:36:03;5.45;;;4.95;;
56670;SDS011;42545;50.054;8.306;2023-08-12T08:38:30;5.30;;;4.80;;
56670;SDS011;42545;50.054;8.306;2023-08-12T08:40:57;8.80;;;7.22;;
56670;SDS011;42545;50.054;8.306;2023-08-12T08:43:24;6.65;;;6.05;;
56670;SDS011;42545;50.054;8.306;2023-08-12T08:45:55;5.05;;;4.55;;
56670;SDS011;42545;50.054;8.306;2023-08-12T08:48:25;4.97;;;4.47;;
56670;SDS011;42545;50.054;8.306;2023-08-12T08:50:52;4.15;;;3.75;;
56670;SDS011;42545;50.054;8.306;2023-08-12T08:53:21;4.03;;;3.67;;
56670;SDS011;42545;50.054;8.306;2023-08-12T08:55:48;3.75;;;3.45;;
56670;SDS011;42545;50.054;8.306;2023-08-12T08:58:15;4.60;;;4.20;;
56670;SDS011;42545;50.054;8.306;2023-08-12T09:00:42;4.10;;;3.70;;
56670;SDS011;42545;50.054;8.306;2023-08-12T09:03:09;3.80;;;3.50;;
56670;SDS011;42545;50.054;8.306;2023-08-12T09:05:39;4.82;;;3.83;;
56670;SDS011;42545;50.054;8.306;2023-08-12T09:08:07;4.03;;;3.72;;
56670;SDS011;42545;50.054;8.306;2023-08-12T09:10:36;3.87;;;3.57;;
56670;SDS011;42545;50.054;8.306;2023-08-12T09:13:05;3.53;;;3.22;;
56670;SDS011;42545;50.054;8.306;2023-08-12T09:15:33;4.60;;;4.20;;
56670;SDS011;42545;50.054;8.306;2023-08-12T09:18:00;3.90;;;3.60;;
56670;SDS011;42545;50.054;8.306;2023-08-12T09:20:29;9.63;;;8.67;;
56670;SDS011;42545;50.054;8.306;2023-08-12T09:22:58;6.50;;;5.90;;
56670;SDS011;42545;50.054;8.306;2023-08-12T09:25:25;6.18;;;5.57;;
56670;SDS011;42545;50.054;8.306;2023-08-12T09:27:54;6.03;;;5.45;;
56670;SDS011;42545;50.054;8.306;2023-08-12T09:30:24;4.90;;;4.50;;
56670;SDS011;42545;50.054;8.306;2023-08-12T09:32:57;4.93;;;4.53;;
56670;SDS011;42545;50.054;8.306;2023-08-12T09:35:32;4.72;;;4.32;;
56670;SDS011;42545;50.054;8.306;2023-08-12T09:38:02;5.32;;;4.80;;
56670;SDS011;42545;50.054;8.306;2023-08-12T09:40:30;10.95;;;9.70;;
56670;SDS011;42545;50.054;8.306;2023-08-12T09:42:57;13.60;;;11.15;;
56670;SDS011;42545;50.054;8.306;2023-08-12T09:45:26;6.57;;;5.95;;
56670;SDS011;42545;50.054;8.306;2023-08-12T09:47:54;6.38;;;5.70;;
56670;SDS011;42545;50.054;8.306;2023-08-12T09:50:21;5.25;;;4.75;;
56670;SDS011;42545;50.054;8.306;2023-08-12T09:52:48;5.53;;;5.03;;
56670;SDS011;42545;50.054;8.306;2023-08-12T09:55:18;5.05;;;4.60;;
56670;SDS011;42545;50.054;8.306;2023-08-12T09:57:48;5.22;;;4.72;;
56670;SDS011;42545;50.054;8.306;2023-08-12T10:00:18;5.18;;;4.68;;
56670;SDS011;42545;50.054;8.306;2023-08-12T10:02:46;5.25;;;4.75;;
56670;SDS011;42545;50.054;8.306;2023-08-12T10:05:16;5.03;;;4.43;;
56670;SDS011;42545;50.054;8.306;2023-08-12T10:07:47;5.20;;;4.70;;
56670;SDS011;42545;50.054;8.306;2023-08-12T10:10:17;4.43;;;4.03;;
56670;SDS011;42545;50.054;8.306;2023-08-12T10:12:47;4.18;;;3.88;;
56670;SDS011;42545;50.054;8.306;2023-08-12T10:15:14;6.50;;;5.72;;
56670;SDS011;42545;50.054;8.306;2023-08-12T10:17:41;5.90;;;5.22;;
56670;SDS011;42545;50.054;8.306;2023-08-12T10:20:12;5.00;;;4.50;;
56670;SDS011;42545;50.054;8.306;2023-08-12T10:22:40;5.18;;;4.22;;
56670;SDS011;42545;50.054;8.306;2023-08-12T10:25:10;5.18;;;4.68;;
56670;SDS011;42545;50.054;8.306;2023-08-12T10:27:42;5.03;;;4.57;;
56670;SDS011;42545;50.054;8.306;2023-08-12T10:30:09;5.97;;;5.40;;
56670;SDS011;42545;50.054;8.306;2023-08-12T10:32:36;5.13;;;4.63;;
56670;SDS011;42545;50.054;8.306;2023-08-12T10:35:04;4.78;;;4.38;;
56670;SDS011;42545;50.054;8.306;2023-08-12T10:37:32;4.25;;;3.85;;
56670;SDS011;42545;50.054;8.306;2023-08-12T10:40:01;4.22;;;3.83;;
56670;SDS011;42545;50.054;8.306;2023-08-12T10:42:39;3.97;;;3.67;;
56670;SDS011;42545;50.054;8.306;2023-08-12T10:45:09;4.70;;;4.20;;
56670;SDS011;42545;50.054;8.306;2023-08-12T10:50:04;3.88;;;3.58;;
56670;SDS011;42545;50.054;8.306;2023-08-12T10:52:32;4.35;;;3.95;;
56670;SDS011;42545;50.054;8.306;2023-08-12T10:55:15;3.90;;;3.60;;
56670;SDS011;42545;50.054;8.306;2023-08-12T10:57:43;3.75;;;3.45;;
56670;SDS011;42545;50.054;8.306;2023-08-12T11:00:14;3.50;;;3.20;;
56670;SDS011;42545;50.054;8.306;2023-08-12T11:02:45;3.30;;;3.00;;
56670;SDS011;42545;50.054;8.306;2023-08-12T11:05:14;3.30;;;3.00;;
56670;SDS011;42545;50.054;8.306;2023-08-12T11:07:45;3.63;;;3.25;;
56670;SDS011;42545;50.054;8.306;2023-08-12T11:10:14;3.35;;;3.05;;
56670;SDS011;42545;50.054;8.306;2023-08-12T11:12:48;2.95;;;2.70;;
56670;SDS011;42545;50.054;8.306;2023-08-12T11:15:30;3.10;;;2.80;;
56670;SDS011;42545;50.054;8.306;2023-08-12T11:17:58;4.35;;;3.50;;
56670;SDS011;42545;50.054;8.306;2023-08-12T11:20:28;3.55;;;3.25;;
56670;SDS011;42545;50.054;8.306;2023-08-12T11:22:55;3.60;;;3.30;;
56670;SDS011;42545;50.054;8.306;2023-08-12T11:25:23;3.28;;;2.80;;
56670;SDS011;42545;50.054;8.306;2023-08-12T11:27:50;3.60;;;3.10;;
56670;SDS011;42545;50.054;8.306;2023-08-12T11:30:18;3.05;;;2.75;;
56670;SDS011;42545;50.054;8.306;2023-08-12T11:32:48;3.13;;;2.50;;
56670;SDS011;42545;50.054;8.306;2023-08-12T11:35:16;2.53;;;2.30;;
56670;SDS011;42545;50.054;8.306;2023-08-12T11:37:44;2.63;;;2.42;;
56670;SDS011;42545;50.054;8.306;2023-08-12T11:40:12;2.33;;;2.13;;
56670;SDS011;42545;50.054;8.306;2023-08-12T11:42:41;2.42;;;2.22;;
56670;SDS011;42545;50.054;8.306;2023-08-12T11:45:10;3.10;;;2.80;;
56670;SDS011;42545;50.054;8.306;2023-08-12T11:47:37;2.90;;;2.60;;
56670;SDS011;42545;50.054;8.306;2023-08-12T11:50:08;2.93;;;2.63;;
56670;SDS011;42545;50.054;8.306;2023-08-12T11:52:36;2.95;;;2.65;;
56670;SDS011;42545;50.054;8.306;2023-08-12T11:55:03;2.95;;;2.72;;
56670;SDS011;42545;50.054;8.306;2023-08-12T11:57:32;2.53;;;2.30;;
56670;SDS011;42545;50.054;8.306;2023-08-12T11:59:59;2.90;;;2.70;;
56670;SDS011;42545;50.054;8.306;2023-08-12T12:02:28;2.60;;;2.40;;
56670;SDS011;42545;50.054;8.306;2023-08-12T12:04:54;2.47;;;2.28;;
56670;SDS011;42545;50.054;8.306;2023-08-12T12:07:24;2.92;;;2.63;;
56670;SDS011;42545;50.054;8.306;2023-08-12T12:09:52;2.90;;;2.60;;
56670;SDS011;42545;50.054;8.306;2023-08-12T12:12:22;2.95;;;2.65;;
56670;SDS011;42545;50.054;8.306;2023-08-12T12:14:52;2.75;;;2.55;;
56670;SDS011;42545;50.054;8.306;2023-08-12T12:17:20;3.05;;;2.75;;
56670;SDS011;42545;50.054;8.306;2023-08-12T12:19:51;2.75;;;2.55;;
56670;SDS011;42545;50.054;8.306;2023-08-12T12:22:18;3.00;;;2.70;;
56670;SDS011;42545;50.054;8.306;2023-08-12T12:24:48;3.38;;;2.90;;
56670;SDS011;42545;50.054;8.306;2023-08-12T12:27:14;4.50;;;3.40;;
56670;SDS011;42545;50.054;8.306;2023-08-12T12:29:41;4.68;;;3.70;;
56670;SDS011;42545;50.054;8.306;2023-08-12T12:32:08;3.67;;;3.25;;
56670;SDS011;42545;50.054;8.306;2023-08-12T12:34:35;3.80;;;3.40;;
56670;SDS011;42545;50.054;8.306;2023-08-12T12:37:01;3.80;;;3.40;;
56670;SDS011;42545;50.054;8.306;2023-08-12T12:39:28;3.58;;;3.28;;
56670;SDS011;42545;50.054;8.306;2023-08-12T12:41:56;3.40;;;3.10;;
56670;SDS011;42545;50.054;8.306;2023-08-12T12:46:51;3.47;;;3.17;;
56670;SDS011;42545;50.054;8.306;2023-08-12T12:49:17;3.75;;;3.08;;
56670;SDS011;42545;50.054;8.306;2023-08-12T12:51:44;4.03;;;3.30;;
56670;SDS011;42545;50.054;8.306;2023-08-12T12:54:10;3.60;;;3.30;;
56670;SDS011;42545;50.054;8.306;2023-08-12T12:56:37;4.40;;;4.00;;
56670;SDS011;42545;50.054;8.306;2023-08-12T12:59:05;3.67;;;3.38;;
56670;SDS011;42545;50.054;8.306;2023-08-12T13:01:32;5.47;;;3.83;;
56670;SDS011;42545;50.054;8.306;2023-08-12T13:03:59;3.45;;;3.15;;
56670;SDS011;42545;50.054;8.306;2023-08-12T13:06:26;4.03;;;3.65;;
56670;SDS011;42545;50.054;8.306;2023-08-12T13:08:52;3.83;;;3.53;;
56670;SDS011;42545;50.054;8.306;2023-08-12T13:11:19;3.40;;;3.10;;
56670;SDS011;42545;50.054;8.306;2023-08-12T13:13:45;3.10;;;2.80;;
56670;SDS011;42545;50.054;8.306;2023-08-12T13:16:14;2.92;;;2.67;;
56670;SDS011;42545;50.054;8.306;2023-08-12T13:18:40;3.38;;;2.75;;
56670;SDS011;42545;50.054;8.306;2023-08-12T13:21:07;3.00;;;2.70;;
56670;SDS011;42545;50.054;8.306;2023-08-12T13:23:34;3.60;;;3.03;;
56670;SDS011;42545;50.054;8.306;2023-08-12T13:26:00;3.13;;;2.70;;
56670;SDS011;42545;50.054;8.306;2023-08-12T13:28:27;3.28;;;2.58;;
56670;SDS011;42545;50.054;8.306;2023-08-12T13:30:55;2.70;;;2.50;;
56670;SDS011;42545;50.054;8.306;2023-08-12T13:33:23;2.83;;;2.63;;
56670;SDS011;42545;50.054;8.306;2023-08-12T13:35:50;2.75;;;2.53;;
56670;SDS011;42545;50.054;8.306;2023-08-12T13:38:16;2.75;;;2.55;;
56670;SDS011;42545;50.054;8.306;2023-08-12T13:40:43;2.97;;;2.40;;
56670;SDS011;42545;50.054;8.306;2023-08-12T13:43:10;2.70;;;2.50;;
56670;SDS011;42545;50.054;8.306;2023-08-12T13:45:37;3.03;;;2.72;;
56670;SDS011;42545;50.054;8.306;2023-08-12T13:48:04;2.50;;;2.30;;
56670;SDS011;42545;50.054;8.306;2023-08-12T13:50:32;2.50;;;2.30;;
56670;SDS011;42545;50.054;8.306;2023-08-12T13:53:01;2.20;;;2.00;;
56670;SDS011;42545;50.054;8.306;2023-08-12T13:55:28;2.30;;;2.10;;
56670;SDS011;42545;50.054;8.306;2023-08-12T13:57:55;2.30;;;2.10;;
56670;SDS011;42545;50.054;8.306;2023-08-12T14:00:22;2.67;;;2.45;;
56670;SDS011;42545;50.054;8.306;2023-08-12T14:02:49;2.30;;;2.10;;
56670;SDS011;42545;50.054;8.306;2023-08-12T14:05:16;1.98;;;1.77;;
56670;SDS011;42545;50.054;8.306;2023-08-12T14:07:45;2.10;;;1.90;;
56670;SDS011;42545;50.054;8.306;2023-08-12T14:10:12;3.30;;;1.92;;
56670;SDS011;42545;50.054;8.306;2023-08-12T14:12:38;2.20;;;2.00;;
56670;SDS011;42545;50.054;8.306;2023-08-12T14:15:05;2.55;;;1.58;;
56670;SDS011;42545;50.054;8.306;2023-08-12T14:17:32;1.88;;;1.77;;
56670;SDS011;42545;50.054;8.306;2023-08-12T14:19:59;2.33;;;1.90;;
56670;SDS011;42545;50.054;8.306;2023-08-12T14:22:26;2.22;;;1.80;;
56670;SDS011;42545;50.054;8.306;2023-08-12T14:24:55;2.55;;;2.00;;
56670;SDS011;42545;50.054;8.306;2023-08-12T14:27:21;3.05;;;2.17;;
56670;SDS011;42545;50.054;8.306;2023-08-12T14:29:48;4.97;;;2.70;;
56670;SDS011;42545;50.054;8.306;2023-08-12T14:32:15;3.17;;;2.58;;
56670;SDS011;42545;50.054;8.306;2023-08-12T14:34:43;6.18;;;3.80;;
56670;SDS011;42545;50.054;8.306;2023-08-12T14:37:12;4.20;;;3.80;;
56670;SDS011;42545;50.054;8.306;2023-08-12T14:39:39;3.47;;;3.17;;
56670;SDS011;42545;50.054;8.306;2023-08-12T14:42:07;3.25;;;2.95;;
56670;SDS011;42545;50.054;8.306;2023-08-12T14:44:35;3.20;;;2.92;;
56670;SDS011;42545;50.054;8.306;2023-08-12T14:47:01;3.65;;;2.95;;
56670;SDS011;42545;50.054;8.306;2023-08-12T14:49:29;3.13;;;2.80;;
56670;SDS011;42545;50.054;8.306;2023-08-12T14:51:56;3.50;;;3.20;;
56670;SDS011;42545;50.054;8.306;2023-08-12T14:54:23;3.72;;;3.00;;